Time;durP1;ratioP1;P1;durP2;ratioP2;P2;SDS_P1;SDS_P2;PMS_P1;PMS_P2;Temp;Humidity;BMP_temperature;BMP_pressure;BME280_temperature;BME280_humidity;BME280_pressure;Samples;Min_cycle;Max_cycle;Signal;HPM_P1;HPM_P2
2021/12/26 00:02:18;;;;;;;;;21.50;21.00;;;;;10.11;100.00;100071.59;5038937;28;45422;-84
2021/12/26 00:04:43;;;;;;;;;27.50;23.00;;;;;10.07;100.00;100063.00;5040133;28;45293;-84
2021/12/26 00:07:09;;;;;;;;;31.25;28.00;;;;;10.07;100.00;100070.13;5044427;28;44859;-85
2021/12/26 00:09:34;;;;;;;;;34.50;28.25;;;;;10.07;100.00;100072.78;5066145;28;45550;-84
2021/12/26 00:12:00;;;;;;;;;31.25;26.00;;;;;10.08;100.00;100062.03;5067378;28;44723;-84
2021/12/26 00:14:25;;;;;;;;;40.75;33.50;;;;;10.08;100.00;100064.69;5050160;28;45324;-83
2021/12/26 00:16:51;;;;;;;;;30.25;28.75;;;;;10.08;100.00;100071.81;5068012;28;44974;-83
2021/12/26 00:19:16;;;;;;;;;39.00;32.00;;;;;10.09;100.00;100065.53;5067056;28;45044;-81
2021/12/26 00:21:42;;;;;;;;;43.67;36.00;;;;;10.06;100.00;100063.97;5043953;28;44790;-84
2021/12/26 00:24:08;;;;;;;;;45.50;33.00;;;;;10.02;100.00;100071.31;5041591;28;45435;-85
2021/12/26 00:26:33;;;;;;;;;40.50;34.25;;;;;10.02;100.00;100063.34;5060598;28;44781;-85
2021/12/26 00:29:04;;;;;;;;;33.25;31.00;;;;;10.01;100.00;100055.53;5058760;28;45031;-83
2021/12/26 00:31:29;;;;;;;;;34.75;31.00;;;;;10.02;100.00;100057.19;5040858;28;44880;-84
2021/12/26 00:33:55;;;;;;;;;37.75;31.50;;;;;10.02;100.00;100060.69;5064935;28;45299;-86
2021/12/26 00:36:20;;;;;;;;;34.75;30.25;;;;;10.05;100.00;100052.50;5050072;28;44940;-86
2021/12/26 00:38:46;;;;;;;;;33.25;27.00;;;;;10.09;100.00;100054.91;5046691;28;46590;-85
2021/12/26 00:41:11;;;;;;;;;32.00;29.50;;;;;10.10;100.00;100051.28;5047832;28;44984;-84
2021/12/26 00:43:37;;;;;;;;;34.50;32.00;;;;;10.10;100.00;100044.19;5061928;28;45406;-85
2021/12/26 00:46:02;;;;;;;;;35.25;32.25;;;;;10.10;100.00;100043.34;5040614;28;45578;-85
2021/12/26 00:48:28;;;;;;;;;28.25;28.00;;;;;10.11;100.00;100047.72;5041098;28;47111;-85
2021/12/26 00:50:54;;;;;;;;;34.25;30.50;;;;;10.08;100.00;100038.16;5042389;28;44844;-84
2021/12/26 00:53:19;;;;;;;;;33.00;29.50;;;;;10.08;100.00;100043.47;5041152;28;45502;-85
2021/12/26 00:55:45;;;;;;;;;35.50;29.50;;;;;10.06;100.00;100045.41;5040611;28;45312;-83
2021/12/26 00:58:10;;;;;;;;;31.00;28.25;;;;;10.06;100.00;100048.06;5057998;28;45467;-85
2021/12/26 01:00:39;;;;;;;;;31.00;30.25;;;;;10.04;100.00;100049.97;5040885;28;44845;-85
2021/12/26 01:03:07;;;;;;;;;34.75;31.00;;;;;10.03;100.00;100054.44;5042091;28;44937;-85
2021/12/26 01:05:36;;;;;;;;;35.50;32.75;;;;;10.04;100.00;100052.63;5061781;28;45485;-86
2021/12/26 01:08:04;;;;;;;;;36.75;31.00;;;;;10.03;100.00;100054.44;5044019;28;46755;-86
2021/12/26 01:10:38;;;;;;;;;37.50;30.75;;;;;10.00;100.00;100052.00;5048047;28;44876;-86
2021/12/26 01:13:15;;;;;;;;;34.25;29.25;;;;;10.00;100.00;100054.66;5065084;28;44750;-85
2021/12/26 01:15:42;;;;;;;;;30.75;30.50;;;;;10.01;100.00;100050.22;5044687;28;44997;-85
2021/12/26 01:18:08;;;;;;;;;27.25;26.50;;;;;9.99;100.00;100046.81;5066567;28;45326;-85
2021/12/26 01:20:45;;;;;;;;;32.75;29.50;;;;;10.01;100.00;100047.56;5066170;28;44791;-85
2021/12/26 01:23:12;;;;;;;;;31.25;24.50;;;;;9.98;100.00;100051.28;5064785;28;44820;-86
2021/12/26 01:25:38;;;;;;;;;36.00;27.00;;;;;9.98;100.00;100051.28;5046004;28;45292;-85
2021/12/26 01:28:05;;;;;;;;;30.25;24.00;;;;;9.98;100.00;100047.78;5059038;28;45000;-86
2021/12/26 01:30:31;;;;;;;;;31.75;26.75;;;;;9.98;100.00;100059.22;5059522;28;44810;-82
2021/12/26 01:32:57;;;;;;;;;36.50;30.25;;;;;9.97;100.00;100054.91;5059053;28;45449;-87
2021/12/26 01:35:22;;;;;;;;;32.25;29.25;;;;;9.93;100.00;100053.44;5059377;28;44927;-84
2021/12/26 01:37:48;;;;;;;;;28.25;26.50;;;;;9.95;100.00;100051.50;5058415;28;45270;-85
2021/12/26 01:40:13;;;;;;;;;33.00;28.25;;;;;9.95;100.00;100050.66;5023237;28;45375;-85
2021/12/26 01:42:39;;;;;;;;;33.75;29.00;;;;;9.92;100.00;100043.78;5041279;28;45258;-88
2021/12/26 01:45:07;;;;;;;;;28.25;27.75;;;;;9.93;100.00;100050.78;5041693;28;45245;-89
2021/12/26 01:47:32;;;;;;;;;28.75;26.00;;;;;9.94;100.00;100041.00;5057955;28;45312;-85
2021/12/26 01:49:58;;;;;;;;;28.25;27.00;;;;;9.93;100.00;100047.28;5039724;28;45468;-88
2021/12/26 01:52:23;;;;;;;;;29.50;27.25;;;;;9.90;100.00;100045.69;5057642;28;44739;-90
2021/12/26 01:55:00;;;;;;;;;25.75;25.00;;;;;9.92;100.00;100041.13;5041134;28;45562;-88
2021/12/26 01:57:26;;;;;;;;;32.50;29.00;;;;;9.91;100.00;100041.22;5041001;28;46774;-88
2021/12/26 01:59:51;;;;;;;;;38.75;30.00;;;;;9.90;100.00;100035.06;5061802;28;44777;-88
2021/12/26 02:02:17;;;;;;;;;31.00;27.25;;;;;9.91;100.00;100047.41;5045566;28;44971;-87
2021/12/26 02:04:43;;;;;;;;;33.75;31.25;;;;;9.89;100.00;100040.50;5072968;28;44869;-88
2021/12/26 02:07:11;;;;;;;;;37.25;28.25;;;;;9.90;100.00;100047.50;5072867;28;45704;-88
2021/12/26 02:09:36;;;;;;;;;33.00;26.00;;;;;9.88;100.00;100049.44;5049229;28;44716;-87
2021/12/26 02:12:02;;;;;;;;;37.00;32.75;;;;;9.88;100.00;100052.94;5066821;28;45376;-88
2021/12/26 02:14:28;;;;;;;;;36.25;32.00;;;;;9.92;100.00;100054.41;5065630;28;44817;-88
2021/12/26 02:16:53;;;;;;;;;37.75;33.00;;;;;9.88;100.00;100060.88;5047469;28;45244;-88
2021/12/26 02:19:19;;;;;;;;;31.25;29.00;;;;;9.86;100.00;100049.53;5051894;28;44764;-88
2021/12/26 02:22:03;;;;;;;;;33.00;27.25;;;;;9.87;100.00;100061.00;5052389;28;45464;-89
2021/12/26 02:24:43;;;;;;;;;23.25;18.50;;;;;9.86;100.00;100057.50;5065625;28;44949;-90
2021/12/26 02:29:52;;;;;;;;;29.00;28.25;;;;;9.84;100.00;100048.81;5062119;28;44796;-88
2021/12/26 02:32:18;;;;;;;;;29.75;28.25;;;;;9.85;100.00;100047.00;5062791;28;45265;-87
2021/12/26 02:34:43;;;;;;;;;38.75;31.25;;;;;9.84;100.00;100046.16;5040162;28;45623;-89
2021/12/26 02:37:09;;;;;;;;;29.00;24.25;;;;;9.85;100.00;100045.19;5039707;28;46019;-89
2021/12/26 02:39:35;;;;;;;;;30.00;26.00;;;;;9.83;100.00;100047.13;5057834;28;44869;-90
2021/12/26 02:42:01;;;;;;;;;29.00;27.75;;;;;9.81;100.00;100040.22;5058550;28;45472;-90
2021/12/26 02:44:49;;;;;;;;;26.25;25.00;;;;;9.81;100.00;100037.56;5081569;28;44810;-90
2021/12/26 02:47:30;;;;;;;;;25.00;24.50;;;;;9.79;100.00;100043.84;5056366;28;46580;-89
2021/12/26 02:50:57;;;;;;;;;;;;;;;;;;;;;
2021/12/26 03:01:10;;;;;;;;;28.25;26.50;;;;;9.74;100.00;100032.75;4923847;28;45236;-90
2021/12/26 03:03:41;;;;;;;;;25.50;24.75;;;;;9.69;100.00;100031.41;4885652;29;44911;-91
2021/12/26 03:06:35;;;;;;;;;33.00;31.00;;;;;9.72;100.00;100042.63;4893111;29;45568;-91
2021/12/26 03:09:01;;;;;;;;;37.25;28.00;;;;;9.68;100.00;100038.50;4891493;29;44986;-90
2021/12/26 03:11:30;;;;;;;;;32.50;25.00;;;;;9.67;100.00;100030.66;4897981;29;45335;-90
2021/12/26 03:24:39;;;;;;;;;;;;;;;;;;;;;
2021/12/26 03:27:17;;;;;;;;;25.50;24.25;;;;;9.70;100.00;100041.03;4900979;29;72099;-89
2021/12/26 03:30:11;;;;;;;;;35.25;30.50;;;;;9.68;100.00;100035.84;4889913;29;45334;-91
2021/12/26 03:32:38;;;;;;;;;30.75;26.25;;;;;9.65;100.00;100030.78;4856689;29;44989;-91
2021/12/26 03:45:21;;;;;;;;;34.50;29.75;;;;;9.69;100.00;100034.88;4961196;28;44721;-92
2021/12/26 03:47:53;;;;;;;;;27.75;26.75;;;;;9.71;100.00;100026.81;4976710;23;45302;-90
2021/12/26 03:53:41;;;;;;;;;32.75;28.00;;;;;9.73;100.00;100027.56;5001993;28;44625;-93
2021/12/26 04:00:17;;;;;;;;;32.25;27.25;;;;;9.72;100.00;100026.72;4958435;28;45496;-93
2021/12/26 04:10:15;;;;;;;;;32.00;30.00;;;;;9.69;100.00;100010.19;4895214;29;44861;-92
2021/12/26 04:16:33;;;;;;;;;39.75;32.50;;;;;9.70;100.00;100012.72;4897123;29;44747;-92
2021/12/26 04:18:58;;;;;;;;;25.50;25.50;;;;;9.69;100.00;100011.03;4881653;29;44772;-91
2021/12/26 04:24:54;;;;;;;;;32.50;27.25;;;;;9.69;100.00;100003.06;4895251;29;45090;-91
2021/12/26 04:37:42;;;;;;;;;39.50;32.50;;;;;9.67;100.00;100007.66;4924062;28;45517;-91
2021/12/26 04:52:13;;;;;;;;;35.80;29.20;;;;;9.66;100.00;99990.03;4533418;23;12916626;-93
2021/12/26 04:54:39;;;;;;;;;33.00;27.25;;;;;9.67;100.00;100002.34;4925817;28;46724;-93
2021/12/26 04:57:05;;;;;;;;;35.50;32.00;;;;;9.66;100.00;99995.31;4956727;28;44733;-92
2021/12/26 04:59:32;;;;;;;;;34.00;30.25;;;;;9.67;100.00;99985.56;4953615;28;44636;-93
2021/12/26 05:01:59;;;;;;;;;25.50;25.50;;;;;9.68;100.00;99987.28;4954546;28;44910;-92
2021/12/26 05:04:27;;;;;;;;;31.50;29.50;;;;;9.67;100.00;99986.44;4959120;28;45134;-93
2021/12/26 05:06:54;;;;;;;;;31.50;29.25;;;;;9.66;100.00;99986.53;4965272;28;44635;-93
2021/12/26 05:09:20;;;;;;;;;39.50;32.00;;;;;9.64;100.00;99986.66;4983468;28;44671;-92
2021/12/26 05:11:47;;;;;;;;;32.50;31.25;;;;;9.68;100.00;99988.13;4964624;28;44876;-94
2021/12/26 05:14:13;;;;;;;;;30.50;30.00;;;;;9.65;100.00;99985.69;4963880;28;45180;-93
2021/12/26 05:16:40;;;;;;;;;33.50;29.25;;;;;9.66;100.00;99992.69;4979104;28;44925;-92
2021/12/26 05:19:05;;;;;;;;;34.75;31.00;;;;;9.65;100.00;99983.03;4978501;28;44736;-91
2021/12/26 05:22:20;;;;;;;;;30.75;27.75;;;;;9.67;100.00;99986.44;4974980;28;44880;-93
2021/12/26 05:24:59;;;;;;;;;29.00;28.75;;;;;9.69;100.00;99988.97;4974385;28;45171;-91
2021/12/26 05:27:25;;;;;;;;;33.25;31.00;;;;;9.62;100.00;99975.34;4954869;28;44606;-92
2021/12/26 05:29:51;;;;;;;;;33.75;31.25;;;;;9.65;100.00;99974.25;4973863;28;44574;-92
2021/12/26 05:32:16;;;;;;;;;27.00;27.00;;;;;9.64;100.00;99978.69;4957794;28;44829;-92
2021/12/26 05:34:42;;;;;;;;;28.75;25.75;;;;;9.64;100.00;99980.50;4958322;28;45229;-92
2021/12/26 05:37:08;;;;;;;;;37.50;31.00;;;;;9.62;100.00;99969.16;4958421;28;44681;-93
2021/12/26 05:39:34;;;;;;;;;31.00;28.75;;;;;9.60;100.00;99971.09;4962333;28;44703;-91
2021/12/26 05:42:00;;;;;;;;;31.25;28.25;;;;;9.60;100.00;99968.44;4945387;28;44847;-92
2021/12/26 05:44:27;;;;;;;;;31.75;30.50;;;;;9.57;100.00;99972.16;4958255;28;46758;-93
2021/12/26 05:46:54;;;;;;;;;31.75;28.25;;;;;9.56;100.00;99966.97;4952683;28;44772;-93
2021/12/26 05:49:19;;;;;;;;;34.00;28.00;;;;;9.56;100.00;99969.63;4922821;28;44678;-92
2021/12/26 05:51:45;;;;;;;;;31.50;29.50;;;;;9.54;100.00;99972.41;4940334;28;44802;-93
2021/12/26 05:54:11;;;;;;;;;31.75;28.25;;;;;9.60;100.00;99974.59;4941525;28;45209;-94
2021/12/26 05:56:36;;;;;;;;;31.25;28.50;;;;;9.62;100.00;99971.81;4938226;28;44666;-93
2021/12/26 05:59:03;;;;;;;;;32.00;29.50;;;;;9.63;100.00;99979.66;4938395;28;44669;-93
2021/12/26 06:01:32;;;;;;;;;29.75;25.00;;;;;9.62;100.00;99985.94;4957628;28;44909;-93
2021/12/26 06:03:58;;;;;;;;;26.00;25.50;;;;;9.62;100.00;99971.81;4945555;28;44988;-93
2021/12/26 06:06:24;;;;;;;;;28.75;26.75;;;;;9.66;100.00;99975.91;4923813;28;44632;-93
2021/12/26 06:09:08;;;;;;;;;27.75;24.50;;;;;9.64;100.00;99972.56;4945211;28;45568;-91
2021/12/26 06:11:37;;;;;;;;;27.00;23.25;;;;;9.70;100.00;99972.91;4944431;28;44878;-89
2021/12/26 06:14:05;;;;;;;;;34.75;29.75;;;;;9.71;100.00;99976.41;4940233;28;46797;-91
2021/12/26 06:16:33;;;;;;;;;28.50;25.75;;;;;9.72;100.00;99975.47;4935819;28;44812;-91
2021/12/26 06:18:59;;;;;;;;;28.00;24.00;;;;;9.72;100.00;99976.31;4948946;28;45401;-86
2021/12/26 06:21:24;;;;;;;;;35.25;25.00;;;;;9.72;100.00;99975.47;4948034;28;45249;-84
2021/12/26 06:23:50;;;;;;;;;28.00;26.00;;;;;9.71;100.00;99977.25;4946037;28;47039;-82
2021/12/26 06:26:17;;;;;;;;;26.75;24.00;;;;;9.71;100.00;99971.13;4947035;28;45322;-82
2021/12/26 06:28:42;;;;;;;;;23.75;21.50;;;;;9.74;100.00;99973.53;4943886;28;44722;-83
2021/12/26 06:31:08;;;;;;;;;34.75;26.75;;;;;9.76;100.00;99971.59;4938957;28;45321;-82
2021/12/26 06:33:33;;;;;;;;;28.25;23.25;;;;;9.74;100.00;99969.09;4938232;28;45131;-81
2021/12/26 06:35:58;;;;;;;;;24.25;23.00;;;;;9.77;100.00;99971.50;4937053;28;45622;-81
2021/12/26 06:38:24;;;;;;;;;27.00;23.50;;;;;9.76;100.00;99968.97;4921849;28;45437;-84
2021/12/26 06:40:49;;;;;;;;;28.75;23.50;;;;;9.76;100.00;99977.75;4925544;28;44910;-83
2021/12/26 06:43:15;;;;;;;;;29.00;25.75;;;;;9.81;100.00;99969.44;4944995;28;45604;-84
2021/12/26 06:45:40;;;;;;;;;23.75;23.75;;;;;9.82;100.00;99965.03;4946212;28;45505;-83
2021/12/26 06:48:06;;;;;;;;;31.25;25.75;;;;;9.85;100.00;99975.38;4944420;28;44814;-84
2021/12/26 06:50:32;;;;;;;;;31.25;26.25;;;;;9.85;100.00;99976.22;4940493;28;45498;-83
2021/12/26 06:52:57;;;;;;;;;27.50;24.75;;;;;9.85;100.00;99976.22;4940037;28;46740;-84
2021/12/26 06:55:23;;;;;;;;;26.75;20.25;;;;;9.86;100.00;99969.94;4957602;28;44772;-84
2021/12/26 06:57:48;;;;;;;;;32.00;26.00;;;;;9.84;100.00;99966.56;4940186;28;44836;-85
2021/12/26 07:00:16;;;;;;;;;25.75;25.00;;;;;9.85;100.00;99967.41;4940411;28;44807;-84
2021/12/26 07:02:42;;;;;;;;;24.25;22.75;;;;;9.85;100.00;99968.25;4939668;28;45327;-83
2021/12/26 07:05:09;;;;;;;;;24.50;22.00;;;;;9.86;100.00;99967.28;4940080;28;45413;-84
2021/12/26 07:07:34;;;;;;;;;25.25;21.25;;;;;9.87;100.00;99968.16;4940222;28;45281;-85
2021/12/26 07:10:00;;;;;;;;;22.75;21.75;;;;;9.90;100.00;99965.25;4957817;28;44768;-85
2021/12/26 07:12:25;;;;;;;;;27.00;24.50;;;;;9.89;100.00;99966.22;4940120;28;45554;-84
2021/12/26 07:14:51;;;;;;;;;20.25;20.25;;;;;9.90;100.00;99958.13;4939754;28;45477;-83
2021/12/26 07:17:16;;;;;;;;;25.75;24.75;;;;;9.90;100.00;99971.41;4957358;28;45110;-83
2021/12/26 07:19:42;;;;;;;;;25.00;25.00;;;;;9.91;100.00;99958.97;4939743;28;45440;-83
2021/12/26 07:22:08;;;;;;;;;26.75;24.75;;;;;9.91;100.00;99972.25;4940105;28;45625;-83
2021/12/26 07:24:33;;;;;;;;;25.00;24.00;;;;;9.92;100.00;99974.81;4958117;28;45558;-82
2021/12/26 07:26:59;;;;;;;;;23.00;20.50;;;;;9.90;100.00;99978.53;4945320;28;44838;-83
2021/12/26 07:29:24;;;;;;;;;22.50;19.75;;;;;9.91;100.00;99977.56;4967971;28;44769;-83
2021/12/26 07:31:50;;;;;;;;;25.25;22.75;;;;;9.89;100.00;99982.16;4969290;28;44944;-83
2021/12/26 07:34:15;;;;;;;;;27.50;22.50;;;;;9.92;100.00;99985.41;4944127;28;45271;-83
2021/12/26 07:36:40;;;;;;;;;26.00;21.00;;;;;9.95;100.00;99986.97;4939357;28;45364;-83
2021/12/26 07:39:06;;;;;;;;;26.00;23.50;;;;;9.97;100.00;99991.22;4939979;28;45329;-83
2021/12/26 07:41:31;;;;;;;;;26.25;23.50;;;;;9.95;100.00;99990.47;4957004;28;45249;-83
2021/12/26 07:43:57;;;;;;;;;27.00;21.75;;;;;9.98;100.00;99987.59;4956827;28;44717;-83
2021/12/26 07:46:23;;;;;;;;;24.75;21.75;;;;;10.00;100.00;99985.66;4939752;28;44747;-87
2021/12/26 07:48:48;;;;;;;;;23.00;20.50;;;;;10.05;100.00;99983.50;4957216;28;44804;-86
2021/12/26 07:51:14;;;;;;;;;24.75;21.00;;;;;10.09;100.00;99973.50;4960413;28;45027;-86
2021/12/26 07:53:40;;;;;;;;;22.25;20.75;;;;;10.12;100.00;99973.28;4960415;28;45383;-87
2021/12/26 07:56:05;;;;;;;;;21.75;21.75;;;;;10.11;100.00;99976.91;4960818;28;44844;-87
2021/12/26 07:58:30;;;;;;;;;26.75;24.00;;;;;10.11;100.00;99984.00;4961435;28;45379;-87
2021/12/26 08:00:56;;;;;;;;;24.75;24.50;;;;;10.15;100.00;99982.78;4944500;28;45504;-87
2021/12/26 08:03:24;;;;;;;;;23.75;21.25;;;;;10.13;100.00;99987.38;4942868;28;45415;-86
2021/12/26 08:05:50;;;;;;;;;26.00;23.25;;;;;10.17;100.00;99989.69;4943197;28;45378;-86
2021/12/26 08:08:15;;;;;;;;;28.25;26.00;;;;;10.18;100.00;99991.38;4943244;28;45367;-87
2021/12/26 08:10:44;;;;;;;;;22.50;20.75;;;;;10.21;100.00;99991.13;4943010;28;46637;-88
2021/12/26 08:13:09;;;;;;;;;27.25;24.00;;;;;10.22;100.00;99990.16;4949234;28;46057;-88
2021/12/26 08:15:36;;;;;;;;;27.75;27.75;;;;;10.24;100.00;99990.91;4970132;28;45455;-88
2021/12/26 08:18:03;;;;;;;;;31.00;26.50;;;;;10.28;100.00;99992.38;4969644;28;45340;-86
2021/12/26 08:20:28;;;;;;;;;28.00;23.50;;;;;10.26;100.00;99983.69;4971583;28;45505;-87
2021/12/26 08:22:53;;;;;;;;;29.50;27.25;;;;;10.31;100.00;99998.44;4963831;28;44835;-87
2021/12/26 08:25:19;;;;;;;;;25.25;23.75;;;;;10.32;100.00;99993.00;4944127;28;45263;-88
2021/12/26 08:27:45;;;;;;;;;30.00;27.00;;;;;10.32;100.00;100000.09;4944483;28;45030;-86
2021/12/26 08:30:11;;;;;;;;;24.50;23.75;;;;;10.33;100.00;100004.44;4948007;28;45746;-91
2021/12/26 08:32:39;;;;;;;;;27.75;23.75;;;;;10.38;100.00;100002.28;4948387;28;45265;-92
2021/12/26 08:35:07;;;;;;;;;26.00;23.25;;;;;10.39;100.00;100001.31;4962180;28;44832;-90
2021/12/26 08:37:33;;;;;;;;;28.50;26.00;;;;;10.41;100.00;100002.06;4963483;28;44767;-87
2021/12/26 08:39:58;;;;;;;;;28.25;23.25;;;;;10.45;100.00;100008.81;4943165;28;47532;-88
2021/12/26 08:42:25;;;;;;;;;24.75;19.75;;;;;10.45;100.00;100007.00;4961028;28;45170;-88
2021/12/26 08:44:52;;;;;;;;;31.25;28.50;;;;;10.45;100.00;100008.81;4944803;28;45388;-87
2021/12/26 08:47:19;;;;;;;;;25.00;24.25;;;;;10.47;100.00;100012.19;4963108;28;45249;-88
2021/12/26 08:49:45;;;;;;;;;25.50;22.50;;;;;10.50;100.00;100015.47;4945745;28;45460;-86
2021/12/26 08:52:10;;;;;;;;;28.00;28.00;;;;;10.53;100.00;100023.16;4947178;28;45319;-87
2021/12/26 08:54:37;;;;;;;;;20.25;20.25;;;;;10.59;100.00;100011.25;4961388;28;44745;-87
2021/12/26 08:57:33;;;;;;;;;23.25;21.00;;;;;10.66;100.00;100019.56;4964087;28;45309;-89
2021/12/26 09:00:00;;;;;;;;;27.00;24.75;;;;;10.68;100.00;100007.81;4877640;29;45493;-89
2021/12/26 09:02:26;;;;;;;;;28.25;25.75;;;;;10.68;100.00;100015.81;4873092;29;44806;-88
2021/12/26 09:05:00;;;;;;;;;28.25;26.00;;;;;10.72;100.00;100019.91;4872954;29;44724;-88
2021/12/26 09:07:28;;;;;;;;;28.25;23.50;;;;;10.78;100.00;100024.75;4875257;29;45018;-87
2021/12/26 09:10:00;;;;;;;;;24.00;23.00;;;;;10.78;100.00;100021.22;4881623;29;45580;-87
2021/12/26 09:12:31;;;;;;;;;23.80;20.80;;;;;10.82;100.00;100026.19;4865322;29;44787;-89
2021/12/26 09:15:00;;;;;;;;;26.40;24.80;;;;;10.83;100.00;100024.41;4873820;29;44779;-88
2021/12/26 09:17:26;;;;;;;;;22.25;20.50;;;;;10.88;100.00;100032.84;4895560;29;45051;-88
2021/12/26 09:19:52;;;;;;;;;28.00;21.75;;;;;10.91;100.00;100029.09;4900219;29;45145;-90
2021/12/26 09:22:23;;;;;;;;;24.80;19.20;;;;;10.99;100.00;100026.66;4886510;29;44791;-89
2021/12/26 09:25:42;;;;;;;;;;;;;;;;;;;;;
2021/12/26 09:28:09;;;;;;;;;24.25;21.25;;;;;11.13;100.00;100037.03;4884785;29;69279;-90
2021/12/26 09:30:36;;;;;;;;;16.25;14.75;;;;;11.17;100.00;100046.47;4901359;28;45259;-89
2021/12/26 09:33:02;;;;;;;;;34.75;27.50;;;;;11.16;100.00;100031.44;4901376;28;44813;-88
2021/12/26 09:35:28;;;;;;;;;25.50;23.00;;;;;11.19;100.00;100027.72;4903534;29;44804;-90
2021/12/26 09:37:53;;;;;;;;;25.25;19.50;;;;;11.29;100.00;100039.28;4972225;28;44767;-90
2021/12/26 09:40:19;;;;;;;;;24.75;22.75;;;;;11.35;100.00;100032.63;4960423;28;46570;-91
2021/12/26 09:42:48;;;;;;;;;24.25;21.75;;;;;11.36;100.00;100031.66;4954838;28;44674;-90
2021/12/26 09:45:16;;;;;;;;;28.75;19.50;;;;;11.39;100.00;100034.06;4934024;28;44737;-91
2021/12/26 09:47:43;;;;;;;;;20.00;20.00;;;;;11.41;100.00;100026.78;4953393;28;44988;-89
2021/12/26 09:50:11;;;;;;;;;21.75;20.25;;;;;11.35;100.00;100028.16;4974857;28;45011;-90
2021/12/26 09:52:43;;;;;;;;;19.60;19.20;;;;;11.37;100.00;100030.72;4961302;28;44783;-91
2021/12/26 09:55:15;;;;;;;;;20.80;15.40;;;;;11.39;100.00;100029.59;4952380;28;44777;-90
2021/12/26 09:57:41;;;;;;;;;19.25;16.25;;;;;11.40;100.00;100025.97;4935288;28;44926;-90
2021/12/26 10:00:38;;;;;;;;;17.25;16.25;;;;;11.39;100.00;100026.09;4946409;28;45052;-90
2021/12/26 10:03:23;;;;;;;;;17.80;14.60;;;;;11.41;100.00;100033.00;4921290;28;44812;-88
2021/12/26 10:06:12;;;;;;;;;17.60;16.20;;;;;11.44;100.00;100029.22;4928722;28;44908;-89
2021/12/26 10:09:03;;;;;;;;;18.75;17.50;;;;;11.46;100.00;100038.78;4927024;28;45601;-89
2021/12/26 10:11:39;;;;;;;;;19.50;17.25;;;;;11.46;100.00;100044.09;4924302;28;46698;-90
2021/12/26 10:14:28;;;;;;;;;19.40;18.20;;;;;11.49;100.00;100027.88;4905156;28;44809;-91
2021/12/26 10:17:01;;;;;;;;;6.00;6.00;;;;;11.53;100.00;100036.44;4924672;28;45042;-87
2021/12/26 10:19:26;;;;;;;;;16.25;16.25;;;;;11.49;100.00;100027.88;4893005;28;45624;-88
2021/12/26 10:21:57;;;;;;;;;17.00;16.00;;;;;11.48;100.00;100023.53;4903888;28;46766;-88
2021/12/26 10:24:26;;;;;;;;;20.80;17.20;;;;;11.49;100.00;100014.56;4923130;28;44713;-90
2021/12/26 10:27:00;;;;;;;;;18.40;16.80;;;;;11.49;100.00;100013.72;4922271;28;45155;-90
2021/12/26 10:29:39;;;;;;;;;17.00;15.75;;;;;11.47;100.00;100010.34;4920206;28;44882;-88
2021/12/26 10:32:21;;;;;;;;;22.75;20.50;;;;;11.48;100.00;100004.91;4910220;28;45258;-88
2021/12/26 10:34:58;;;;;;;;;27.60;23.20;;;;;11.49;100.00;100011.91;4916297;28;45028;-88
2021/12/26 10:37:25;;;;;;;;;24.80;19.20;;;;;11.45;100.00;100010.47;4948349;28;44771;-88
2021/12/26 10:39:53;;;;;;;;;24.25;18.75;;;;;11.42;100.00;100018.72;4948508;28;45379;-89
2021/12/26 10:42:23;;;;;;;;;23.75;21.00;;;;;11.41;100.00;100010.84;4949744;28;45336;-88
2021/12/26 10:44:55;;;;;;;;;26.40;23.40;;;;;11.42;100.00;100020.53;4931111;28;44830;-88
2021/12/26 10:47:23;;;;;;;;;21.20;19.40;;;;;11.41;100.00;100008.19;4952570;28;45308;-87
2021/12/26 10:49:57;;;;;;;;;21.00;18.75;;;;;11.41;100.00;100014.38;4962035;28;44857;-94
2021/12/26 10:52:55;;;;;;;;;21.75;21.75;;;;;11.37;100.00;100007.63;4986182;28;45281;-95
2021/12/26 10:55:32;;;;;;;;;27.25;23.25;;;;;11.39;100.00;100013.63;4926716;28;44794;-92
2021/12/26 10:58:02;;;;;;;;;21.80;20.40;;;;;11.38;100.00;100013.78;4923307;29;44750;-92
2021/12/26 11:00:33;;;;;;;;;17.50;14.00;;;;;11.30;100.00;100006.41;4906262;29;44822;-93
2021/12/26 11:03:05;;;;;;;;;23.00;18.00;;;;;11.28;100.00;100003.03;4908121;29;45262;-93
2021/12/26 11:05:41;;;;;;;;;25.20;20.60;;;;;11.25;100.00;100005.94;4907833;29;44686;-93
2021/12/26 11:08:11;;;;;;;;;22.40;19.40;;;;;11.19;100.00;99996.66;4921862;29;45095;-92
2021/12/26 11:10:51;;;;;;;;;17.00;15.50;;;;;11.16;100.00;100002.22;4916210;29;44706;-89
2021/12/26 11:13:23;;;;;;;;;14.40;14.40;;;;;11.14;100.00;100003.31;4890967;29;47183;-90
2021/12/26 11:15:55;;;;;;;;;10.00;8.00;;;;;11.04;100.00;99993.44;4910705;29;45267;-89
2021/12/26 11:18:22;;;;;;;;;7.40;6.00;;;;;11.01;100.00;99990.16;4921564;28;44738;-93
2021/12/26 11:20:55;;;;;;;;;7.00;4.00;;;;;10.96;100.00;99995.84;4928453;28;44793;-90
2021/12/26 11:23:24;;;;;;;;;3.00;3.00;;;;;10.92;100.00;100006.84;4924612;28;45052;-88
2021/12/26 11:25:59;;;;;;;;;0.60;0.60;;;;;10.88;100.00;99997.44;4918597;29;44738;-86
2021/12/26 11:28:30;;;;;;;;;4.80;4.00;;;;;10.84;100.00;99994.19;4906495;29;44768;-89
2021/12/26 11:31:06;;;;;;;;;3.00;3.00;;;;;10.85;100.00;99995.88;4914012;28;45383;-87
2021/12/26 11:33:33;;;;;;;;;4.80;2.20;;;;;10.87;100.00;100001.06;4942720;28;46298;-89
2021/12/26 11:36:02;;;;;;;;;4.80;3.00;;;;;10.88;100.00;99995.66;4937286;28;45256;-89
2021/12/26 11:38:29;;;;;;;;;3.60;3.20;;;;;10.89;100.00;100004.47;4941779;28;45359;-89
2021/12/26 11:40:59;;;;;;;;;3.80;3.80;;;;;10.93;100.00;99998.78;4925976;28;45412;-89
2021/12/26 11:43:55;;;;;;;;;3.00;3.00;;;;;10.98;100.00;100009.88;4942592;28;45191;-88
2021/12/26 11:46:45;;;;;;;;;4.20;4.20;;;;;11.05;100.00;99994.28;4930037;28;45502;-88
2021/12/26 11:49:37;;;;;;;;;4.00;4.00;;;;;11.15;100.00;99997.88;4947714;28;44705;-87
2021/12/26 11:52:23;;;;;;;;;3.80;3.80;;;;;11.28;100.00;99995.91;4945774;28;45427;-89
2021/12/26 11:55:34;;;;;;;;;4.00;3.20;;;;;11.32;100.00;99988.53;4943441;28;45480;-89
2021/12/26 11:58:35;;;;;;;;;5.00;4.60;;;;;11.43;100.00;99984.97;4944136;28;45624;-89
2021/12/26 12:01:02;;;;;;;;;4.00;4.00;;;;;11.47;100.00;99989.94;4925984;28;44725;-89
2021/12/26 12:03:30;;;;;;;;;5.00;3.00;;;;;11.54;100.00;99983.09;4925017;28;44889;-88
2021/12/26 12:05:57;;;;;;;;;4.00;4.00;;;;;11.68;100.00;99981.97;4944720;28;45344;-89
2021/12/26 12:08:35;;;;;;;;;3.60;3.60;;;;;11.83;100.00;99982.53;4956802;28;44872;-89
2021/12/26 12:11:07;;;;;;;;;5.00;5.00;;;;;12.00;100.00;99976.63;4939790;28;44742;-88
2021/12/26 12:13:41;;;;;;;;;5.00;5.00;;;;;12.19;100.00;99967.06;4936597;28;45469;-87
2021/12/26 12:16:29;;;;;;;;;4.00;4.00;;;;;12.38;100.00;99966.31;4951649;28;45422;-89
2021/12/26 12:18:58;;;;;;;;;5.40;4.80;;;;;12.49;100.00;99953.75;4950123;28;45320;-90
2021/12/26 12:21:44;;;;;;;;;4.60;4.60;;;;;12.60;100.00;99956.31;4942122;28;45130;-89
2021/12/26 12:24:15;;;;;;;;;6.20;5.00;;;;;12.64;100.00;99948.06;4944661;28;44721;-89
2021/12/26 12:26:50;;;;;;;;;10.80;10.80;;;;;12.67;100.00;99953.97;4943393;28;45078;-90
2021/12/26 12:29:21;;;;;;;;;3.80;3.80;;;;;12.71;100.00;99949.19;4943648;28;44808;-89
2021/12/26 12:31:47;;;;;;;;;4.40;4.40;;;;;12.79;100.00;99944.03;4943074;28;44692;-88
2021/12/26 12:34:13;;;;;;;;;4.80;4.80;;;;;12.80;100.00;99946.53;4943704;28;45299;-88
2021/12/26 12:36:45;;;;;;;;;3.50;3.50;;;;;12.89;100.00;99944.06;4932638;28;45320;-90
2021/12/26 12:39:13;;;;;;;;;2.20;2.20;;;;;12.93;100.00;99943.63;4933682;28;44785;-91
2021/12/26 12:41:41;;;;;;;;;2.40;2.40;;;;;13.01;100.00;99935.81;4949968;28;44895;-90
2021/12/26 12:44:32;;;;;;;;;1.00;1.00;;;;;13.11;100.00;99931.31;4952795;28;44862;-88